| Date | Temp | Humidity | Rainfall | Dew Point | Wind Direction | Wind Speed | Wind Pressure | Condition | Visibility |
|---|---|---|---|---|---|---|---|---|---|
| 2025-03-24 23:00:28 | 25 | 96 | 0.0 | 24 | 060 | 3.0 | 1011 | Rain | 08 KM |
| 2025-03-24 21:56:48 | 26 | 95 | 0.0 | 25 | 050 | 3.0 | 1011 | Night Shower | 08 KM |
| 2025-03-24 20:59:20 | 26 | 93 | 0.0 | 25 | 070 | 8 | 1011 | Cloudy | 10 km |
| 2025-03-24 20:05:18 | 26 | 94 | 0.0 | 25 | 040 | 6 | 1010 | Cloudy | 10 km |
| 2025-03-24 18:00:09 | 27 | 92 | 0.00 | 25 | 040 | 9.5 | 1009 | Rain | 7KM |
| 2025-03-24 17:00:45 | 27 | 89 | 0.00 | 25 | 020 | 11.4 | 1008 | Shower Day | 9KM |
| 2025-03-24 15:59:26 | 28 | 80 | 0.00 | 24 | 350 | 13.3 | 1008 | Shower Day | 10KM |
| 2025-03-24 15:00:12 | 29 | 73 | 0.00 | 24 | 340 | 19.0 | 1009 | Distant showers | 10KM |
| 2025-03-24 14:01:37 | 29 | 72 | 0.00 | 24 | 340 | 20.9 | 1009 | Distant showers | 15KM |
| 2025-03-24 13:01:27 | 29 | 75 | 0.00 | 24 | 350 | 17.1 | 1010 | Partly Cloudy (Day) | 10KM |
| 2025-03-24 12:00:17 | 30 | 73 | 0.00 | 24 | 360 | 13.3 | 1011 | Partly Cloudy (Day) | 10KM |
| 2025-03-24 11:28:11 | 29 | 78 | 0.00 | 24 | 020 | 11.4 | 1011 | Partly Cloudy (Day) | 10KM |
| 2025-03-24 09:58:47 | 28 | 78 | 24 | 040 | 11.4 | 1012 | Partly Cloudy (Day) | 20 KM | |
| 2025-03-24 08:58:05 | 28 | 81 | 24 | 030 | 13.3 | 1011 | Partly Cloudy (Day) | 20 KM | |
| 2025-03-24 07:57:40 | 27 | 84 | 0 | 24 | 360 | 5.7 | 1011 | Cloudy | 20 KM |
| 2025-03-24 07:00:18 | 26 | 93 | 0 | 24 | 120 | 1.9 | 1011 | Cloudy | 10 KM |
| 2025-03-24 05:59:56 | 25 | 95 | 0 | 24 | 100 | 1.9 | 1010 | Cloudy | 10 KM |
| 2025-03-24 05:00:37 | 26 | 93 | 0 | 24 | 200 | 5.7 | 1009 | Cloudy | 10 KM |
| 2025-03-24 04:00:10 | 26 | 92 | 0 | 24 | 300 | 1.5 | 1009 | Cloudy | 10 KM |
| 2025-03-24 02:59:45 | 26 | 90 | 24 | 240 | 1.9 | 1010 | Partly Cloudy (Night) | 10KM | |
| 2025-03-24 02:00:04 | 26 | 89 | 24 | 330 | 5.7 | 1010 | Partly Cloudy (Night) | 10KM | |
| 2025-03-24 01:00:26 | 27 | 85 | 24 | 020 | 5.7 | 1011 | Partly Cloudy (Night) | 10KM | |
| 2025-03-24 00:00:02 | 27 | 85 | 24 | 010 | 7.6 | 1012 | Partly Cloudy (Night) | 10KM | |
| 2025-03-23 23:01:44 | 27 | 87 | 25 | 010 | 5.7 | 1012 | Partly Cloudy (Night) | 10KM | |
| 2025-03-23 22:00:27 | 27 | 86 | 25 | 010 | 7.6 | 1012 | Partly Cloudy (Night) | 10KM |